KDRT/DRT METAR and TAF weather

Enter ICAO airport designator
Station Type Date Time Source
KDRT METAR 2022/07/01 01:53 UTC NOAA

KDRT 010153Z AUTO 15006KT 10SM CLR 35/15 A2986 RMK AO2 SLP099 T03500150


Station Type Date Time Source
KDRT Decoded METAR 2022/07/01 01:53 UTC NOAA

DEL RIO INTERNATIONAL AIRPORT, TX, United States (KDRT) 29-22N 100-55W 313M
Jun 30, 2022 - 09:53 PM EDT / 2022.07.01 0153 UTC
Wind: from the SSE (150 degrees) at 7 MPH (6 KT):0
Visibility: 10 mile(s):0
Sky conditions: clear
Temperature: 95.0 F (35.0 C)
Heat index: 94.5 F (34.7 C):1
Dew Point: 59.0 F (15.0 C)
Relative Humidity: 30%
Pressure (altimeter): 29.86 in. Hg (1011 hPa)
ob: KDRT 010153Z AUTO 15006KT 10SM CLR 35/15 A2986 RMK AO2 SLP099 T03500150
cycle: 2

Station Type Date Time Source
KDRT TAF 2022/06/30 18:22 UTC NOAA

TAF KDRT 301720Z 3018/0118 14009KT P6SM FEW090 FEW250
FM010200 11007KT P6SM SKC
FM011500 13011KT P6SM SKC

Example: see airport list